首页
METAR-TAF:

METAR-TAF

机场 :

Brenner Field

Falls City, 內布拉斯加州, 美国

纬度: 40-04-44N, 经度: 095-35-31W, 海拔: 300米

当前天气观测

该预报发布于42分钟前的00:15 UTC
风速5节,风向西北
温度 4°C
湿度 56%
气压 1018 hPa
能見度: 16.1公里
阴天层高于2800英尺

METAR: KFNB 140015Z AUTO 32005KT 10SM OVC028 04/M04 A3005 RMK AO2 T00391044

时间: 18:57 (00:57 UTC)


TAF: 丢失

超过4000个机场的气象观测和天气预报(METAR&TAF报告)。

可查询的气象台以黄色和红色小点在地图上表示。

将鼠标移到小点上方,可查看气象台名称。

然后点击查看天气观测和预报。

如需切换地图:点击带黑十字的绿色按钮放大地图;点击带横线的绿色按钮缩小地图;或者点击绿色箭头查看邻近地区的地图。


METAR-TAF: